Metar z połowy godziny Komunikat METAR ze strony awiacja.imgw.pl Metar G30 EPZG METAR EPZG 172030Z 00000KT 2100 BCFG BR NSC 08/08 Q1020 =